Agoura Hills, California
Current Conditions -  °F | °C
As of 9:51 AM on Wednesday 28 Jan 2015 (Local Time) from KVNY Reporting Station
Broken Clouds Broken Clouds  
Wind Chill: 65°   Ceiling: 20000
Heat Index: 65°   Visibility: 10mi
Dew Point: 48°   Wind: 10mph
Humidity: 54%   Direction: 360°N
Pressure: 30.15"   Gusts: NA
Location:  34.15°N, 118.77°W
Report Text: KVNY 281751Z 36009KT 10SM BKN200 18/09 A3015 RMK AO2 SLP205 T01830089 10183 20106 50001
Loading
Personal Weather Stations






























Interactive Weather Map New forecast layout! Learn more

10-Day Weather Forecast

Advertisements
Track Severe Weather on mobile